Wendt, South Dakota
Current Conditions -  °F | °C
As of 7:53 AM on Monday 22 Dec 2014 (Local Time) from KPIR Reporting Station
Overcast Overcast  
Wind Chill: 28°   Ceiling: 2500
Heat Index: 37°   Visibility: 10mi
Dew Point: 33°   Wind: 16mph
Humidity: 86%   Direction: 300°WNW
Pressure: 29.45"   Gusts: NA
Location:  44.3693°N, 100.04°W
Report Text: KPIR 221353Z AUTO 30014KT 10SM OVC025 03/01 A2945 RMK AO2 PK WND 28027/1257 SLP987 T00280006
Loading
Personal Weather Stations






























Interactive Weather Map New forecast layout! Learn more

10-Day Weather Forecast

Advertisements
Track Severe Weather on mobile